Terminal Aerodrome Forecast
Issued by NWS

Home | Current Version | Previous Version | Text Only | Print | Product List | Glossary On
Versions: 1 2 3 4 5 6 7 8 9 10 11 12 13 14
000
FTUS44 KCRP 291123
TAFALI
TAF
KALI 291123Z 2912/3012 VRB06KT P6SM FEW040
     FM292200 12013KT P6SM FEW050 FEW250
     FM300100 14006KT P6SM SCT250=

USA.gov is the U.S. government's official web portal to all federal, state and local government web resources and services.